Bolivar, Ohio
Current Conditions -  °F | °C
As of 4:53 AM on Wednesday 26 Nov 2014 (Local Time) from KPHD Reporting Station
Scattered Clouds Scattered Clouds  
Wind Chill: 32°   Ceiling: Unl
Heat Index: 32°   Visibility: 9mi
Dew Point: 27°   Wind: 3mph
Humidity: 82%   Direction: NA
Pressure: 30.13"   Gusts: NA
Location:  40.65°N, 81.45°W
Report Text: KPHD 260953Z AUTO VRB03KT 9SM SCT120 00/M03 A3013 RMK AO2 SLP210 T00001028
Loading
Personal Weather Stations






























Interactive Weather Map New forecast layout! Learn more

10-Day Weather Forecast

Advertisements
Track Severe Weather on mobile